Time;durP1;ratioP1;P1;durP2;ratioP2;P2;SDS_P1;SDS_P2;PMS_P1;PMS_P2;Temp;Humidity;BMP_temperature;BMP_pressure;BME280_temperature;BME280_humidity;BME280_pressure;Samples;Min_cycle;Max_cycle;Signal;HPM_P1;HPM_P2
2021/08/22 00:01:29;;;;;;;5.07;2.92;;;18.40;95.30;;;;;;5032987;28;20123;-84
2021/08/22 00:03:55;;;;;;;4.07;2.78;;;18.40;95.40;;;;;;5033139;28;20034;-82
2021/08/22 00:06:20;;;;;;;4.60;2.83;;;18.40;95.50;;;;;;5033162;28;20034;-84
2021/08/22 00:08:46;;;;;;;4.47;3.20;;;18.40;95.60;;;;;;5033337;28;20029;-83
2021/08/22 00:11:12;;;;;;;5.13;3.53;;;18.40;95.60;;;;;;5033247;28;20052;-86
2021/08/22 00:13:38;;;;;;;4.40;3.08;;;18.40;95.70;;;;;;5033481;28;20057;-85
2021/08/22 00:16:03;;;;;;;4.47;3.25;;;18.40;95.70;;;;;;5032904;28;20053;-84
2021/08/22 00:18:29;;;;;;;5.15;3.20;;;18.40;95.70;;;;;;5033334;28;20492;-83
2021/08/22 00:20:55;;;;;;;5.55;3.53;;;18.40;95.70;;;;;;5034703;28;20091;-84
2021/08/22 00:23:21;;;;;;;5.80;3.38;;;18.40;95.80;;;;;;5016799;28;20045;-84
2021/08/22 00:25:46;;;;;;;5.13;3.65;;;18.40;95.80;;;;;;5033375;28;20069;-86
2021/08/22 00:28:12;;;;;;;4.82;3.15;;;18.40;95.90;;;;;;5033618;28;20029;-84
2021/08/22 00:30:38;;;;;;;5.00;3.28;;;18.50;95.90;;;;;;5035525;28;20385;-87
2021/08/22 00:33:03;;;;;;;5.35;3.38;;;18.50;95.80;;;;;;5037588;28;20022;-84
2021/08/22 00:35:29;;;;;;;5.22;2.97;;;18.50;95.80;;;;;;5037313;28;20039;-83
2021/08/22 00:37:56;;;;;;;4.88;2.90;;;18.50;95.80;;;;;;5037171;28;20025;-85
2021/08/22 00:40:21;;;;;;;4.47;3.00;;;18.50;95.90;;;;;;5037121;28;20026;-86
2021/08/22 00:42:47;;;;;;;5.13;3.20;;;18.50;95.90;;;;;;5037408;28;20071;-86
2021/08/22 00:45:13;;;;;;;4.65;2.85;;;18.60;95.80;;;;;;5036830;28;20025;-85
2021/08/22 00:47:48;;;;;;;5.30;3.90;;;18.60;95.70;;;;;;5037475;28;20478;-86
2021/08/22 00:50:18;;;;;;;5.75;3.47;;;18.70;95.60;;;;;;5036709;28;20017;-85
2021/08/22 00:52:43;;;;;;;5.65;3.72;;;18.70;95.60;;;;;;5036862;28;20034;-84
2021/08/22 00:55:09;;;;;;;5.93;3.20;;;18.70;95.70;;;;;;5036757;28;20490;-84
2021/08/22 00:57:35;;;;;;;5.47;3.50;;;18.70;95.60;;;;;;5036628;28;20025;-83
2021/08/22 01:00:04;;;;;;;4.35;3.03;;;18.70;95.70;;;;;;5036038;28;20117;-83
2021/08/22 01:02:34;;;;;;;6.28;3.80;;;18.70;95.60;;;;;;5036312;28;20041;-84
2021/08/22 01:05:27;;;;;;;5.38;3.38;;;18.70;95.60;;;;;;5036416;28;20490;-83
2021/08/22 01:08:11;;;;;;;5.70;3.60;;;18.70;95.50;;;;;;5018684;28;20390;-83
2021/08/22 01:10:38;;;;;;;5.45;3.35;;;18.70;95.50;;;;;;5036321;28;20057;-83
2021/08/22 01:13:10;;;;;;;5.53;3.75;;;18.70;95.50;;;;;;5035811;28;20100;-82
2021/08/22 01:15:39;;;;;;;4.78;3.33;;;18.70;95.40;;;;;;5035876;28;20021;-83
2021/08/22 01:18:11;;;;;;;;;;;18.70;95.50;;;;;;5036558;28;20017;-83
2021/08/22 01:20:52;;;;;;;6.22;4.30;;;18.60;95.60;;;;;;5036141;28;19912;-85
2021/08/22 01:23:18;;;;;;;6.75;4.07;;;18.60;95.60;;;;;;5036047;28;20041;-82
2021/08/22 01:25:46;;;;;;;5.32;3.55;;;18.60;95.70;;;;;;5035716;28;20108;-82
2021/08/22 01:28:13;;;;;;;6.45;4.70;;;18.60;95.70;;;;;;5017535;28;20026;-81
2021/08/22 01:30:43;;;;;;;6.07;4.30;;;18.60;95.90;;;;;;5018086;28;20105;-84
2021/08/22 01:33:11;;;;;;;6.22;4.00;;;18.60;95.60;;;;;;5036018;28;20465;-82
2021/08/22 01:35:38;;;;;;;5.47;3.97;;;18.60;95.70;;;;;;5035675;28;20037;-82
2021/08/22 01:38:07;;;;;;;5.20;3.28;;;18.60;95.60;;;;;;5035579;28;20022;-83
2021/08/22 01:40:34;;;;;;;5.80;3.40;;;18.70;95.60;;;;;;5035371;28;20378;-82
2021/08/22 01:43:00;;;;;;;5.00;3.55;;;18.60;95.60;;;;;;5034403;28;20101;-81
2021/08/22 01:45:27;;;;;;;6.20;3.50;;;18.60;95.60;;;;;;5035424;28;20129;-81
2021/08/22 01:47:52;;;;;;;6.53;3.90;;;18.60;95.60;;;;;;5035638;28;20028;-82
2021/08/22 01:50:21;;;;;;;5.15;3.45;;;18.60;95.60;;;;;;5035499;28;20018;-81
2021/08/22 01:52:51;;;;;;;6.88;4.28;;;18.60;95.60;;;;;;5035464;28;20013;-80
2021/08/22 01:55:17;;;;;;;5.95;3.35;;;18.50;95.60;;;;;;5035322;28;20026;-83
2021/08/22 01:57:43;;;;;;;4.88;3.03;;;18.50;95.70;;;;;;5034948;28;20020;-83
2021/08/22 02:00:10;;;;;;;4.03;2.58;;;18.50;95.70;;;;;;5035386;28;20383;-83
2021/08/22 02:02:43;;;;;;;4.00;2.60;;;18.50;95.70;;;;;;5035218;28;20037;-84
2021/08/22 02:05:12;;;;;;;5.32;3.03;;;18.50;95.60;;;;;;5035212;28;20029;-83
2021/08/22 02:07:38;;;;;;;4.85;2.97;;;18.50;95.70;;;;;;5035183;28;20021;-80
2021/08/22 02:10:08;;;;;;;4.72;2.90;;;18.50;95.60;;;;;;5017348;28;20044;-83
2021/08/22 02:12:35;;;;;;;4.22;2.88;;;18.40;95.60;;;;;;5034690;28;20032;-83
2021/08/22 02:15:04;;;;;;;5.55;3.17;;;18.40;95.70;;;;;;5016790;28;20045;-82
2021/08/22 02:17:54;;;;;;;6.30;4.13;;;18.40;95.60;;;;;;5017254;28;20025;-81
2021/08/22 02:20:20;;;;;;;6.40;3.80;;;18.50;95.60;;;;;;5017344;28;20133;-83
2021/08/22 02:22:47;;;;;;;5.68;3.47;;;18.50;95.70;;;;;;5034704;28;20490;-82
2021/08/22 02:25:14;;;;;;;7.35;3.92;;;18.50;95.60;;;;;;5034308;28;20040;-84
2021/08/22 02:27:41;;;;;;;8.40;4.18;;;18.50;95.60;;;;;;5034860;28;20087;-83
2021/08/22 02:30:08;;;;;;;8.13;4.28;;;18.50;95.60;;;;;;5035098;28;20029;-82
2021/08/22 02:32:33;;;;;;;6.88;4.15;;;18.60;95.60;;;;;;5034500;28;20549;-81
2021/08/22 02:34:59;;;;;;;7.78;5.32;;;18.60;95.60;;;;;;5034700;28;20060;-81
2021/08/22 02:37:25;;;;;;;8.60;5.00;;;18.60;95.50;;;;;;5034713;28;20029;-82
2021/08/22 02:39:51;;;;;;;10.07;5.25;;;18.50;95.60;;;;;;5034270;28;20032;-81
2021/08/22 02:42:17;;;;;;;10.02;6.32;;;18.50;95.60;;;;;;5034557;28;20025;-79
2021/08/22 02:44:44;;;;;;;9.30;6.18;;;18.50;95.70;;;;;;5016576;28;20107;-81
2021/08/22 02:47:10;;;;;;;9.73;5.10;;;18.40;95.60;;;;;;5034319;28;20076;-83
2021/08/22 02:49:36;;;;;;;9.55;5.50;;;18.40;95.70;;;;;;5034291;28;20022;-82
2021/08/22 02:52:02;;;;;;;9.90;6.28;;;18.30;95.70;;;;;;5034176;28;20030;-81
2021/08/22 02:54:27;;;;;;;9.35;5.85;;;18.30;95.70;;;;;;5033496;28;20048;-78
2021/08/22 02:56:53;;;;;;;9.38;5.25;;;18.30;95.70;;;;;;5034140;28;20532;-79
2021/08/22 02:59:18;;;;;;;9.50;5.25;;;18.30;95.70;;;;;;5034138;28;20036;-79
2021/08/22 03:01:44;;;;;;;8.18;4.78;;;18.30;95.70;;;;;;5033832;28;20057;-79
2021/08/22 03:04:09;;;;;;;8.00;4.97;;;18.30;95.70;;;;;;5034059;28;20108;-79
2021/08/22 03:06:37;;;;;;;7.70;4.38;;;18.30;95.70;;;;;;5034010;28;20109;-81
2021/08/22 03:09:03;;;;;;;8.90;4.95;;;18.30;95.70;;;;;;5033277;28;20025;-79
2021/08/22 03:11:30;;;;;;;8.60;5.15;;;18.40;95.70;;;;;;5033917;28;20030;-79
2021/08/22 03:13:56;;;;;;;6.40;4.25;;;18.30;95.70;;;;;;5016177;28;20108;-79
2021/08/22 03:16:22;;;;;;;6.82;3.78;;;18.30;95.60;;;;;;5015913;28;20093;-78
2021/08/22 03:18:47;;;;;;;7.20;4.03;;;18.30;95.60;;;;;;5033842;28;20470;-79
2021/08/22 03:21:13;;;;;;;6.20;4.07;;;18.40;95.60;;;;;;5033612;28;20116;-78
2021/08/22 03:23:38;;;;;;;7.10;4.32;;;18.40;95.60;;;;;;5033289;28;20032;-79
2021/08/22 03:26:04;;;;;;;8.63;4.70;;;18.40;95.60;;;;;;5033646;28;20367;-79
2021/08/22 03:28:29;;;;;;;8.40;4.82;;;18.30;95.50;;;;;;5033464;28;20033;-79
2021/08/22 03:30:55;;;;;;;9.88;5.97;;;18.30;95.60;;;;;;5033616;28;20030;-78
2021/08/22 03:33:21;;;;;;;9.15;5.88;;;18.30;95.60;;;;;;5033649;28;20022;-82
2021/08/22 03:35:47;;;;;;;9.30;5.40;;;18.30;95.60;;;;;;5033376;28;20030;-79
2021/08/22 03:38:13;;;;;;;8.25;4.63;;;18.20;95.60;;;;;;5033118;28;20032;-81
2021/08/22 03:40:39;;;;;;;8.18;4.93;;;18.20;95.70;;;;;;5033531;28;20025;-80
2021/08/22 03:43:04;;;;;;;9.10;4.72;;;18.20;95.70;;;;;;5033476;28;20022;-80
2021/08/22 03:45:30;;;;;;;7.95;4.85;;;18.20;95.70;;;;;;5015615;28;20033;-80
2021/08/22 03:47:55;;;;;;;8.65;4.97;;;18.20;95.70;;;;;;5033491;28;20018;-79
2021/08/22 03:50:21;;;;;;;9.55;4.80;;;18.20;95.70;;;;;;5033469;28;20030;-79
2021/08/22 03:52:51;;;;;;;8.18;5.18;;;18.20;95.70;;;;;;5032845;28;20057;-80
2021/08/22 03:55:20;;;;;;;8.30;4.78;;;18.20;95.60;;;;;;5033383;28;20030;-80
2021/08/22 03:57:46;;;;;;;9.40;5.43;;;18.20;95.60;;;;;;5033251;28;20022;-78
2021/08/22 04:00:12;;;;;;;10.00;5.07;;;18.10;95.60;;;;;;5033138;28;20032;-78
2021/08/22 04:02:38;;;;;;;8.82;5.40;;;18.10;95.60;;;;;;5033173;28;20132;-79
2021/08/22 04:05:07;;;;;;;7.07;4.05;;;18.10;95.60;;;;;;5017151;28;20112;-79
2021/08/22 04:07:33;;;;;;;7.20;3.77;;;18.10;95.60;;;;;;5036848;28;20112;-79
2021/08/22 04:09:59;;;;;;;9.75;5.30;;;18.10;95.60;;;;;;5037368;28;20017;-79
2021/08/22 04:12:24;;;;;;;10.15;5.70;;;18.10;95.60;;;;;;5037370;28;20470;-79
2021/08/22 04:14:50;;;;;;;8.02;4.10;;;18.10;95.60;;;;;;5037131;28;20021;-78
2021/08/22 04:17:15;;;;;;;8.63;5.00;;;18.20;95.60;;;;;;5037221;28;20099;-78
2021/08/22 04:19:41;;;;;;;9.50;5.28;;;18.20;95.50;;;;;;5037030;28;20022;-79
2021/08/22 04:22:08;;;;;;;8.45;5.55;;;18.10;95.50;;;;;;5036935;28;20429;-79
2021/08/22 04:24:37;;;;;;;9.25;5.78;;;18.20;95.50;;;;;;5036967;28;20120;-80
2021/08/22 04:27:04;;;;;;;11.82;5.28;;;18.20;95.50;;;;;;5036877;28;20029;-78
2021/08/22 04:29:31;;;;;;;9.23;5.53;;;18.20;95.50;;;;;;5036917;28;20075;-78
2021/08/22 04:31:56;;;;;;;10.68;5.82;;;18.10;95.40;;;;;;5037035;28;20022;-77
2021/08/22 04:34:22;;;;;;;8.93;5.15;;;18.10;95.50;;;;;;5036873;28;20025;-78
2021/08/22 04:36:48;;;;;;;10.32;5.25;;;18.10;95.50;;;;;;5036380;28;20479;-76
2021/08/22 04:39:14;;;;;;;9.30;5.72;;;18.10;95.60;;;;;;5036956;28;20078;-83
2021/08/22 04:41:43;;;;;;;9.80;5.45;;;18.10;95.50;;;;;;5036923;28;20115;-77
2021/08/22 04:44:09;;;;;;;11.23;5.80;;;18.10;95.60;;;;;;5036693;28;20032;-77
2021/08/22 04:46:34;;;;;;;11.63;5.80;;;18.10;95.60;;;;;;5036882;28;20030;-78
2021/08/22 04:49:00;;;;;;;9.38;4.90;;;18.00;95.60;;;;;;5036796;28;20503;-80
2021/08/22 04:51:25;;;;;;;12.70;6.45;;;18.00;95.60;;;;;;5036040;28;20026;-77
2021/08/22 04:53:51;;;;;;;11.60;6.60;;;18.00;95.50;;;;;;5018649;28;20028;-80
2021/08/22 04:56:16;;;;;;;12.27;6.78;;;18.00;95.50;;;;;;5036441;28;20388;-79
2021/08/22 04:58:42;;;;;;;11.52;6.07;;;18.00;95.50;;;;;;5036387;28;20044;-79
2021/08/22 05:01:07;;;;;;;10.23;5.60;;;18.00;95.50;;;;;;5018392;28;20091;-79
2021/08/22 05:03:33;;;;;;;13.73;8.57;;;18.00;95.50;;;;;;5036269;28;20096;-79
2021/08/22 05:05:59;;;;;;;13.07;7.68;;;18.00;95.50;;;;;;5035717;28;20030;-79
2021/08/22 05:08:24;;;;;;;13.07;7.43;;;18.00;95.50;;;;;;5036087;28;20018;-79
2021/08/22 05:10:50;;;;;;;13.00;7.10;;;18.00;95.50;;;;;;5036036;28;20032;-79
2021/08/22 05:13:16;;;;;;;10.10;5.30;;;18.00;95.50;;;;;;5018369;28;20025;-79
2021/08/22 05:15:42;;;;;;;11.35;5.63;;;18.00;95.60;;;;;;5036059;28;20022;-79
2021/08/22 05:18:07;;;;;;;9.98;5.38;;;18.00;95.60;;;;;;5035967;28;20022;-80
2021/08/22 05:20:33;;;;;;;10.60;5.15;;;18.00;95.50;;;;;;5035539;28;20029;-79
2021/08/22 05:22:58;;;;;;;12.13;5.88;;;18.10;95.50;;;;;;5035882;28;20013;-79
2021/08/22 05:25:24;;;;;;;9.30;5.65;;;18.10;95.50;;;;;;5035599;28;20386;-78
2021/08/22 05:27:50;;;;;;;9.65;5.38;;;18.10;95.50;;;;;;5035870;28;20030;-79
2021/08/22 05:30:15;;;;;;;10.38;5.75;;;18.10;95.40;;;;;;5036086;28;20034;-79
2021/08/22 05:32:41;;;;;;;10.07;5.43;;;18.10;95.50;;;;;;5035906;28;20099;-79
2021/08/22 05:35:07;;;;;;;9.98;5.30;;;18.20;95.50;;;;;;5035249;28;20018;-79
2021/08/22 05:37:32;;;;;;;10.50;6.22;;;18.20;95.40;;;;;;5035582;28;20108;-80
2021/08/22 05:39:58;;;;;;;11.02;5.63;;;18.20;95.40;;;;;;5035596;28;20096;-79
2021/08/22 05:42:23;;;;;;;10.50;5.40;;;18.20;95.40;;;;;;5035726;28;20022;-78
2021/08/22 05:44:48;;;;;;;11.23;5.75;;;18.30;95.40;;;;;;5035385;28;20033;-79
2021/08/22 05:47:20;;;;;;;10.30;5.88;;;18.30;95.40;;;;;;5035513;28;20037;-79
2021/08/22 05:49:47;;;;;;;10.30;5.35;;;18.40;95.30;;;;;;5035021;28;20540;-78
2021/08/22 05:52:14;;;;;;;10.20;5.05;;;18.40;95.30;;;;;;5035447;28;20024;-79
2021/08/22 05:54:39;;;;;;;9.82;5.53;;;18.40;95.30;;;;;;5035302;28;20052;-79
2021/08/22 05:57:05;;;;;;;11.43;5.85;;;18.40;95.30;;;;;;5035277;28;20057;-79
2021/08/22 05:59:33;;;;;;;10.95;6.10;;;18.50;95.30;;;;;;5035236;28;20025;-79
2021/08/22 06:01:59;;;;;;;12.82;6.43;;;18.50;95.30;;;;;;5035028;28;20502;-78
2021/08/22 06:04:24;;;;;;;9.65;5.30;;;18.50;95.30;;;;;;5034883;28;20037;-77
2021/08/22 06:06:50;;;;;;;11.75;6.07;;;18.60;95.30;;;;;;5034918;28;20029;-77
2021/08/22 06:09:15;;;;;;;12.40;6.03;;;18.70;95.30;;;;;;5035055;28;20018;-81
2021/08/22 06:11:41;;;;;;;16.42;8.75;;;18.70;95.20;;;;;;5035105;28;20018;-78
2021/08/22 06:14:07;;;;;;;13.85;7.45;;;18.80;95.20;;;;;;5035083;28;20497;-80
2021/08/22 06:16:32;;;;;;;16.42;8.25;;;18.70;95.10;;;;;;5017103;28;20025;-81
2021/08/22 06:18:59;;;;;;;13.57;7.82;;;18.70;95.20;;;;;;5034478;28;20025;-81
2021/08/22 06:21:24;;;;;;;11.82;6.97;;;18.70;95.40;;;;;;5034959;28;20029;-74
2021/08/22 06:23:51;;;;;;;12.63;6.97;;;18.70;95.20;;;;;;5035153;28;20079;-85
2021/08/22 06:26:17;;;;;;;10.70;5.97;;;18.70;95.20;;;;;;5035107;28;20032;-88
2021/08/22 06:28:42;;;;;;;13.90;7.72;;;18.80;95.20;;;;;;5034715;28;20018;-81
2021/08/22 06:31:07;;;;;;;12.40;6.93;;;18.90;95.20;;;;;;5034623;28;20037;-82
2021/08/22 06:33:33;;;;;;;11.90;6.07;;;18.80;95.20;;;;;;5034139;28;20096;-82
2021/08/22 06:36:00;;;;;;;11.48;6.60;;;18.80;95.20;;;;;;5034532;28;20137;-81
2021/08/22 06:38:26;;;;;;;12.23;7.82;;;18.80;95.20;;;;;;5016958;28;20433;-82
2021/08/22 06:40:52;;;;;;;9.35;5.20;;;18.80;95.20;;;;;;5034527;28;20029;-84
2021/08/22 06:43:17;;;;;;;10.13;6.78;;;18.80;95.20;;;;;;5034493;28;20374;-82
2021/08/22 06:45:43;;;;;;;12.10;6.65;;;18.80;95.20;;;;;;5016694;28;20183;-84
2021/08/22 06:48:11;;;;;;;11.02;5.30;;;18.80;95.20;;;;;;5017143;28;20160;-83
2021/08/22 06:50:37;;;;;;;11.10;5.72;;;18.70;95.10;;;;;;5035617;28;20036;-84
2021/08/22 06:53:02;;;;;;;11.10;6.03;;;18.70;95.20;;;;;;5035214;28;20100;-83
2021/08/22 06:55:28;;;;;;;9.15;4.75;;;18.70;95.20;;;;;;5034196;28;20064;-82
2021/08/22 06:57:53;;;;;;;8.50;4.93;;;18.80;95.10;;;;;;5016595;28;20028;-84
2021/08/22 07:00:22;;;;;;;9.68;5.35;;;18.80;95.10;;;;;;5033874;28;20040;-86
2021/08/22 07:02:47;;;;;;;8.70;4.70;;;18.70;95.20;;;;;;5016487;28;20041;-83
2021/08/22 07:05:13;;;;;;;8.13;3.80;;;18.80;95.20;;;;;;5034011;28;20338;-82
2021/08/22 07:07:39;;;;;;;9.32;5.32;;;18.80;95.10;;;;;;5034060;28;20022;-83
2021/08/22 07:10:05;;;;;;;7.50;4.63;;;18.80;95.10;;;;;;5034004;28;20437;-83
2021/08/22 07:12:31;;;;;;;7.43;5.55;;;18.90;95.10;;;;;;5034014;28;20022;-83
2021/08/22 07:14:56;;;;;;;10.07;5.90;;;18.90;95.00;;;;;;5016026;28;20072;-83
2021/08/22 07:17:22;;;;;;;11.50;5.78;;;18.80;94.90;;;;;;5030988;28;20988;-82
2021/08/22 07:19:48;;;;;;;10.07;4.97;;;18.80;94.90;;;;;;5011379;28;20205;-83
2021/08/22 07:22:17;;;;;;;11.88;6.70;;;18.70;95.00;;;;;;5011319;28;20168;-83
2021/08/22 07:24:42;;;;;;;11.35;5.38;;;18.70;95.00;;;;;;5011214;28;20471;-83
2021/08/22 07:27:08;;;;;;;8.00;4.85;;;18.60;95.10;;;;;;5011247;28;20033;-83
2021/08/22 07:29:35;;;;;;;10.60;5.22;;;18.60;95.10;;;;;;5010379;28;20037;-83
2021/08/22 07:32:01;;;;;;;15.18;8.57;;;18.60;95.10;;;;;;4993429;28;20028;-82
2021/08/22 07:34:26;;;;;;;11.65;6.45;;;18.60;95.10;;;;;;4993553;28;20025;-84
2021/08/22 07:36:52;;;;;;;7.57;4.97;;;18.60;95.10;;;;;;4993636;28;20034;-84
2021/08/22 07:39:17;;;;;;;10.02;5.88;;;18.60;95.10;;;;;;5010450;28;20065;-83
2021/08/22 07:41:43;;;;;;;9.48;5.47;;;18.60;95.00;;;;;;5011302;28;20484;-83
2021/08/22 07:44:08;;;;;;;10.27;6.82;;;18.70;95.00;;;;;;5011148;28;20080;-86
2021/08/22 07:46:34;;;;;;;12.15;6.45;;;18.60;95.00;;;;;;5011417;28;20044;-86
2021/08/22 07:48:59;;;;;;;13.23;7.03;;;18.60;95.00;;;;;;5011242;28;20096;-86
2021/08/22 07:51:25;;;;;;;9.20;6.13;;;18.60;95.00;;;;;;5011259;28;20506;-84
2021/08/22 07:53:50;;;;;;;9.00;5.97;;;18.60;95.00;;;;;;5010950;28;20026;-83
2021/08/22 07:56:16;;;;;;;7.20;4.88;;;18.70;95.00;;;;;;5010977;28;20054;-82
2021/08/22 07:58:41;;;;;;;11.77;6.38;;;18.70;95.00;;;;;;5010411;28;20022;-82
2021/08/22 08:01:07;;;;;;;9.10;5.30;;;18.70;94.90;;;;;;5010501;28;20121;-83
2021/08/22 08:03:32;;;;;;;8.63;5.53;;;18.80;95.00;;;;;;5010662;28;20483;-80
2021/08/22 08:05:58;;;;;;;8.35;4.70;;;18.90;94.90;;;;;;5010619;28;20481;-81
2021/08/22 08:08:23;;;;;;;9.15;5.55;;;18.90;94.90;;;;;;5010923;28;20029;-81
2021/08/22 08:10:50;;;;;;;8.57;5.28;;;19.00;94.90;;;;;;5010688;28;20088;-79
2021/08/22 08:13:16;;;;;;;8.40;4.65;;;19.10;94.80;;;;;;5010304;28;20018;-81
2021/08/22 08:15:43;;;;;;;7.65;4.65;;;19.20;94.90;;;;;;5010686;28;20028;-80
2021/08/22 08:18:09;;;;;;;10.23;6.15;;;19.30;94.80;;;;;;5010467;28;20022;-81
2021/08/22 08:20:37;;;;;;;8.45;5.10;;;19.40;94.70;;;;;;5010646;28;20038;-79
2021/08/22 08:23:03;;;;;;;8.63;5.20;;;19.30;94.70;;;;;;5018428;28;20080;-83
2021/08/22 08:25:29;;;;;;;10.65;5.85;;;19.30;94.80;;;;;;5026873;28;20036;-75
2021/08/22 08:27:55;;;;;;;8.10;5.22;;;19.40;94.90;;;;;;5030416;28;20013;-79
2021/08/22 08:30:20;;;;;;;9.82;5.78;;;19.40;94.80;;;;;;5015159;28;20037;-77
2021/08/22 08:32:46;;;;;;;7.13;4.18;;;19.50;94.80;;;;;;5014563;28;20108;-79
2021/08/22 08:35:12;;;;;;;6.85;4.32;;;19.50;94.80;;;;;;5032976;28;20064;-80
2021/08/22 08:37:41;;;;;;;8.55;4.53;;;19.50;94.80;;;;;;5032814;28;20026;-82
2021/08/22 08:40:15;;;;;;;7.35;4.40;;;19.60;94.80;;;;;;5032749;28;20364;-78
2021/08/22 08:42:48;;;;;;;7.30;4.88;;;19.60;94.70;;;;;;5014735;28;20064;-80
2021/08/22 08:45:23;;;;;;;8.63;5.65;;;19.50;94.70;;;;;;5032879;28;20554;-82
2021/08/22 08:47:51;;;;;;;8.10;4.65;;;19.50;94.70;;;;;;5032850;28;20065;-80
2021/08/22 08:50:23;;;;;;;7.22;4.60;;;19.40;94.70;;;;;;5033071;28;20021;-80
2021/08/22 08:53:05;;;;;;;7.72;5.32;;;19.40;94.90;;;;;;5037218;28;20061;-82
2021/08/22 08:55:51;;;;;;;7.25;4.85;;;19.50;94.70;;;;;;5037521;28;20053;-85
2021/08/22 08:58:17;;;;;;;7.47;4.63;;;19.60;94.70;;;;;;5037673;28;20022;-84
2021/08/22 09:00:47;;;;;;;8.38;5.22;;;19.60;94.70;;;;;;5037560;28;20029;-85
2021/08/22 09:03:14;;;;;;;7.68;4.93;;;19.60;94.60;;;;;;5037638;28;20036;-85
2021/08/22 09:05:58;;;;;;;8.15;5.32;;;19.60;94.60;;;;;;5036719;28;20033;-82
2021/08/22 09:09:01;;;;;;;8.90;5.72;;;19.60;94.60;;;;;;5037038;28;20470;-86
2021/08/22 09:12:10;;;;;;;6.80;4.47;;;19.60;94.60;;;;;;5036519;28;20479;-86
2021/08/22 09:15:00;;;;;;;7.97;5.72;;;19.80;94.80;;;;;;5036570;28;20021;-85
2021/08/22 09:18:03;;;;;;;6.85;4.22;;;20.00;94.70;;;;;;5036648;28;20029;-87
2021/08/22 09:20:31;;;;;;;7.70;5.13;;;20.30;94.50;;;;;;5036676;28;20022;-86
2021/08/22 09:23:34;;;;;;;8.07;5.43;;;20.50;94.40;;;;;;5036922;28;20508;-86
2021/08/22 09:26:44;;;;;;;7.20;5.05;;;20.60;94.20;;;;;;5035131;28;20041;-79
2021/08/22 09:29:47;;;;;;;8.73;4.70;;;20.60;94.20;;;;;;5035974;28;20391;-78
2021/08/22 09:33:08;;;;;;;6.75;4.53;;;20.50;94.20;;;;;;5035787;28;20104;-80
2021/08/22 09:35:55;;;;;;;6.95;4.75;;;20.50;94.20;;;;;;5035764;28;20474;-80
2021/08/22 09:38:23;;;;;;;5.35;3.45;;;20.40;94.30;;;;;;5035756;28;20033;-80
2021/08/22 09:41:28;;;;;;;7.45;5.32;;;20.40;94.40;;;;;;5035230;28;20025;-76
2021/08/22 09:44:12;;;;;;;6.28;4.45;;;20.50;94.20;;;;;;5017818;28;20424;-84
2021/08/22 09:47:02;;;;;;;7.10;4.65;;;20.60;94.20;;;;;;5035361;28;20039;-78
2021/08/22 09:50:08;;;;;;;6.78;4.43;;;20.60;94.20;;;;;;5035589;28;20036;-80
2021/08/22 09:52:53;;;;;;;5.57;3.67;;;20.50;94.00;;;;;;5035447;28;20072;-80
2021/08/22 09:55:39;;;;;;;7.63;5.30;;;20.40;94.10;;;;;;5034863;28;20101;-79
2021/08/22 09:58:42;;;;;;;5.78;3.83;;;20.40;94.10;;;;;;5035320;28;20512;-79
2021/08/22 10:01:21;;;;;;;5.88;3.60;;;20.30;94.20;;;;;;5035419;28;20124;-80
2021/08/22 10:04:03;;;;;;;5.38;4.00;;;20.20;94.30;;;;;;5034402;28;20030;-80
2021/08/22 10:06:41;;;;;;;4.95;3.20;;;20.20;94.30;;;;;;5017343;28;20036;-81
2021/08/22 10:09:22;;;;;;;4.97;3.20;;;20.20;94.30;;;;;;5034544;28;20105;-81
2021/08/22 10:11:56;;;;;;;5.65;4.38;;;20.20;94.30;;;;;;5035084;28;20072;-82
2021/08/22 10:14:22;;;;;;;6.88;4.57;;;20.30;94.20;;;;;;5035165;28;20108;-78
2021/08/22 10:16:49;;;;;;;9.65;6.65;;;20.30;94.10;;;;;;5034876;28;20037;-81
2021/08/22 10:19:15;;;;;;;8.13;5.50;;;20.20;94.00;;;;;;5034998;28;20033;-82
2021/08/22 10:21:41;;;;;;;6.88;4.63;;;20.10;94.10;;;;;;5034873;28;20033;-82
2021/08/22 10:24:30;;;;;;;7.45;5.22;;;20.00;94.30;;;;;;5016395;28;20079;-84
2021/08/22 10:26:58;;;;;;;6.60;4.38;;;19.90;94.30;;;;;;5017113;28;20041;-83
2021/08/22 10:29:26;;;;;;;7.03;4.68;;;19.90;94.30;;;;;;5034876;28;20032;-79
2021/08/22 10:31:55;;;;;;;6.32;3.85;;;19.90;94.30;;;;;;5034537;28;20087;-80
2021/08/22 10:34:24;;;;;;;6.30;4.55;;;20.00;94.30;;;;;;5034535;28;20554;-83
2021/08/22 10:36:51;;;;;;;8.48;5.40;;;20.00;94.30;;;;;;5034511;28;20033;-78
2021/08/22 10:39:21;;;;;;;6.15;4.28;;;20.00;94.20;;;;;;5033973;28;20040;-82
2021/08/22 10:41:47;;;;;;;6.97;4.30;;;20.10;94.10;;;;;;5016671;28;20029;-80
2021/08/22 10:44:39;;;;;;;6.45;4.75;;;20.00;94.20;;;;;;5034538;28;20030;-82
2021/08/22 10:47:10;;;;;;;5.65;3.50;;;20.10;94.20;;;;;;5034613;28;20602;-83
2021/08/22 10:49:51;;;;;;;5.45;3.72;;;20.20;94.30;;;;;;5016603;28;20028;-82
2021/08/22 10:52:20;;;;;;;6.20;3.95;;;20.30;94.20;;;;;;5016555;28;20183;-80
2021/08/22 10:55:06;;;;;;;6.65;3.78;;;20.40;94.10;;;;;;5034470;28;20458;-82
2021/08/22 10:57:44;;;;;;;5.85;3.95;;;20.40;94.00;;;;;;5016846;28;20022;-79
2021/08/22 11:00:40;;;;;;;6.70;4.53;;;20.50;94.00;;;;;;5034974;28;20091;-84
2021/08/22 11:03:21;;;;;;;5.50;3.75;;;20.50;93.90;;;;;;5022216;28;20459;-82
2021/08/22 11:05:48;;;;;;;6.35;4.07;;;20.40;94.00;;;;;;5034072;28;20095;-80
2021/08/22 11:08:20;;;;;;;6.22;4.13;;;20.50;94.00;;;;;;5015670;28;20025;-78
2021/08/22 11:10:59;;;;;;;6.35;4.25;;;20.50;94.00;;;;;;5034041;28;20157;-82
2021/08/22 11:13:26;;;;;;;5.67;3.90;;;20.60;94.00;;;;;;5033822;28;20355;-79
2021/08/22 11:15:52;;;;;;;4.38;3.15;;;20.80;94.10;;;;;;5033873;28;20028;-81
2021/08/22 11:18:18;;;;;;;6.00;4.50;;;21.00;94.00;;;;;;5033871;28;20026;-79
2021/08/22 11:20:44;;;;;;;6.40;4.15;;;21.20;93.90;;;;;;5033837;28;20033;-81
2021/08/22 11:23:17;;;;;;;7.70;4.18;;;21.20;93.80;;;;;;5015517;28;20549;-82
2021/08/22 11:25:47;;;;;;;5.88;3.42;;;21.30;93.80;;;;;;5033683;28;20073;-81
2021/08/22 11:28:14;;;;;;;6.32;3.80;;;21.30;93.80;;;;;;5033609;28;20029;-83
2021/08/22 11:30:41;;;;;;;4.93;3.25;;;21.40;93.90;;;;;;5015734;28;20359;-80
2021/08/22 11:33:08;;;;;;;4.85;2.95;;;21.50;93.80;;;;;;5033711;28;20022;-82
2021/08/22 11:35:38;;;;;;;5.22;3.67;;;21.50;93.80;;;;;;5015922;28;20021;-82
2021/08/22 11:38:05;;;;;;;4.63;2.95;;;21.70;93.70;;;;;;5033054;28;20426;-79
2021/08/22 11:40:32;;;;;;;5.82;3.70;;;21.60;93.70;;;;;;5033448;28;20347;-80
2021/08/22 11:43:03;;;;;;;5.22;3.88;;;21.70;93.60;;;;;;5033499;28;20029;-78
2021/08/22 11:45:31;;;;;;;4.80;3.13;;;21.70;93.50;;;;;;5015804;28;20038;-82
2021/08/22 11:47:57;;;;;;;5.00;3.35;;;21.70;93.60;;;;;;5033484;28;20096;-82
2021/08/22 11:50:28;;;;;;;4.68;3.10;;;21.70;93.60;;;;;;5032884;28;20029;-90
2021/08/22 11:52:58;;;;;;;6.05;4.10;;;21.90;93.70;;;;;;5033891;28;20022;-83
2021/08/22 11:55:31;;;;;;;5.20;3.88;;;22.20;93.40;;;;;;5033593;28;20057;-82
2021/08/22 11:58:10;;;;;;;5.18;3.63;;;22.60;93.50;;;;;;5033506;28;20083;-84
2021/08/22 12:00:36;;;;;;;4.25;2.60;;;23.00;93.10;;;;;;5033653;28;20523;-85
2021/08/22 12:03:03;;;;;;;4.38;3.45;;;23.20;93.10;;;;;;5033219;28;20049;-78
2021/08/22 12:05:30;;;;;;;4.90;3.42;;;23.20;92.90;;;;;;5032705;28;20364;-79
2021/08/22 12:08:09;;;;;;;4.75;3.53;;;23.20;92.90;;;;;;5033029;28;20072;-82
2021/08/22 12:10:40;;;;;;;5.05;2.88;;;23.10;93.00;;;;;;5033304;28;20021;-80
2021/08/22 12:13:31;;;;;;;4.70;3.05;;;22.90;93.00;;;;;;5033299;28;20026;-86
2021/08/22 12:15:57;;;;;;;4.47;3.28;;;22.70;93.20;;;;;;5031025;28;20041;-86
2021/08/22 12:18:31;;;;;;;4.60;2.85;;;22.60;93.30;;;;;;5033806;28;20022;-85
2021/08/22 12:21:03;;;;;;;3.13;2.60;;;22.60;93.30;;;;;;5015974;28;20453;-87
2021/08/22 12:23:31;;;;;;;4.80;3.30;;;22.50;93.30;;;;;;5016256;28;20022;-85
2021/08/22 12:26:22;;;;;;;4.63;3.25;;;22.50;93.30;;;;;;5017538;28;20048;-87
2021/08/22 12:28:51;;;;;;;6.25;3.67;;;22.50;93.20;;;;;;5037949;28;20101;-84
2021/08/22 12:31:16;;;;;;;5.07;3.63;;;22.50;93.20;;;;;;5020134;28;20379;-87
2021/08/22 12:33:44;;;;;;;5.40;4.40;;;22.50;93.10;;;;;;5037752;28;20017;-88
2021/08/22 12:36:19;;;;;;;6.07;4.32;;;22.50;93.10;;;;;;5019789;28;20029;-86
2021/08/22 12:38:46;;;;;;;5.28;3.88;;;22.40;93.00;;;;;;5037718;28;20048;-85
2021/08/22 12:41:20;;;;;;;4.68;3.05;;;22.20;93.20;;;;;;5037930;28;20087;-86
2021/08/22 12:43:46;;;;;;;4.82;3.50;;;22.10;93.30;;;;;;5020568;28;20028;-90
2021/08/22 12:46:11;;;;;;;4.97;3.67;;;22.10;93.50;;;;;;5022064;28;20037;-88
2021/08/22 12:48:37;;;;;;;4.70;3.55;;;22.20;93.50;;;;;;5038001;28;20049;-85
2021/08/22 12:51:08;;;;;;;5.55;3.92;;;22.30;93.30;;;;;;5037680;28;20105;-83
2021/08/22 12:53:33;;;;;;;4.20;3.10;;;22.30;93.20;;;;;;5036957;28;20028;-84
2021/08/22 12:55:59;;;;;;;5.43;4.22;;;22.30;93.20;;;;;;5037252;28;20033;-87
2021/08/22 12:58:24;;;;;;;4.28;3.25;;;22.20;93.20;;;;;;5037769;28;20028;-89